aviador You're here:

KLWC Decoded Metar

LAWRENCE in KS, USA
Report Time2018-01-22 01:52:00
UTC Time2018-01-22 01:58:05
Flight Rules vfr VFR
Wind100° at 04 kt
W.Decomp.*RWY 15: 2.4 kt HW 3.2 kt LCW
RWY 01: 0.3 kt HW 4.0 kt RCW
W.Rank100° ranks 13
Current wind is below 100° avg. (5.7)
Visibility9999 m
Phenomena:N/A
Clouds:Scattered 036 Hf
Expected CloudBase > 800 ft AGL from Temp-Dew spread
CeilingNone
Temp10°C (ISA -3)
Dew Point08°C (88% RH)
AAT8.1°C
QNH1002 hPa
Density Alt955 ft
Elevation830 ft
Report Wrong Elevation
Raw Report
KLWC 220152Z AUTO 10004KT 10SM SCT036 10/08 A2959 RMK AO2 LTG DSNT
N SLP021 T01000078=

Extra information for KLWC:More info

Metar Taf Metar & Taf Last 4 Metars F.Rules Stats Wind Profile Meteogram Temp Stats Airport Information Weather charts Add Link Nearby VenuesMetar ALERT Operation Metar Decoded Social comments

AIRNAV info for KLWC
GUT Works, LLC